sensor_id;sensor_type;location;lat;lon;timestamp;P1;durP1;ratioP1;P2;durP2;ratioP2
24521;SDS011;12680;57.804;12.190;2024-02-26T00:00:07;4.43;;;1.30;;
24521;SDS011;12680;57.804;12.190;2024-02-26T00:02:38;0.75;;;0.75;;
24521;SDS011;12680;57.804;12.190;2024-02-26T00:05:06;1.65;;;1.23;;
24521;SDS011;12680;57.804;12.190;2024-02-26T00:07:34;2.17;;;1.42;;
24521;SDS011;12680;57.804;12.190;2024-02-26T00:10:02;2.45;;;1.48;;
24521;SDS011;12680;57.804;12.190;2024-02-26T00:12:29;2.20;;;1.20;;
24521;SDS011;12680;57.804;12.190;2024-02-26T00:14:56;3.83;;;1.20;;
24521;SDS011;12680;57.804;12.190;2024-02-26T00:17:24;3.30;;;1.00;;
24521;SDS011;12680;57.804;12.190;2024-02-26T00:19:51;0.80;;;0.80;;
24521;SDS011;12680;57.804;12.190;2024-02-26T00:22:19;2.13;;;1.00;;
24521;SDS011;12680;57.804;12.190;2024-02-26T00:24:46;0.80;;;0.80;;
24521;SDS011;12680;57.804;12.190;2024-02-26T00:27:13;0.95;;;0.93;;
24521;SDS011;12680;57.804;12.190;2024-02-26T00:29:40;1.30;;;1.08;;
24521;SDS011;12680;57.804;12.190;2024-02-26T00:32:07;1.33;;;0.90;;
24521;SDS011;12680;57.804;12.190;2024-02-26T00:34:34;0.70;;;0.70;;
24521;SDS011;12680;57.804;12.190;2024-02-26T00:37:01;0.98;;;0.90;;
24521;SDS011;12680;57.804;12.190;2024-02-26T00:39:28;0.80;;;0.80;;
24521;SDS011;12680;57.804;12.190;2024-02-26T00:41:55;0.80;;;0.80;;
24521;SDS011;12680;57.804;12.190;2024-02-26T00:44:22;2.25;;;0.77;;
24521;SDS011;12680;57.804;12.190;2024-02-26T00:46:49;1.13;;;0.90;;
24521;SDS011;12680;57.804;12.190;2024-02-26T00:49:16;1.65;;;0.90;;
24521;SDS011;12680;57.804;12.190;2024-02-26T00:51:43;2.00;;;1.33;;
24521;SDS011;12680;57.804;12.190;2024-02-26T00:54:09;1.67;;;1.05;;
24521;SDS011;12680;57.804;12.190;2024-02-26T00:56:36;0.93;;;0.90;;
24521;SDS011;12680;57.804;12.190;2024-02-26T00:59:03;1.85;;;0.80;;
24521;SDS011;12680;57.804;12.190;2024-02-26T01:01:30;1.33;;;0.95;;
24521;SDS011;12680;57.804;12.190;2024-02-26T01:03:57;1.00;;;0.88;;
24521;SDS011;12680;57.804;12.190;2024-02-26T01:06:24;1.15;;;1.05;;
24521;SDS011;12680;57.804;12.190;2024-02-26T01:08:52;0.93;;;0.90;;
24521;SDS011;12680;57.804;12.190;2024-02-26T01:11:18;1.63;;;0.95;;
24521;SDS011;12680;57.804;12.190;2024-02-26T01:13:45;1.73;;;0.90;;
24521;SDS011;12680;57.804;12.190;2024-02-26T01:16:12;1.00;;;0.80;;
24521;SDS011;12680;57.804;12.190;2024-02-26T01:18:39;0.93;;;0.80;;
24521;SDS011;12680;57.804;12.190;2024-02-26T01:21:06;1.15;;;1.05;;
24521;SDS011;12680;57.804;12.190;2024-02-26T01:23:35;1.17;;;0.98;;
24521;SDS011;12680;57.804;12.190;2024-02-26T01:26:02;3.90;;;1.23;;
24521;SDS011;12680;57.804;12.190;2024-02-26T01:28:31;1.98;;;1.15;;
24521;SDS011;12680;57.804;12.190;2024-02-26T01:30:58;1.38;;;1.10;;
24521;SDS011;12680;57.804;12.190;2024-02-26T01:33:26;3.42;;;1.35;;
24521;SDS011;12680;57.804;12.190;2024-02-26T01:35:53;2.88;;;1.42;;
24521;SDS011;12680;57.804;12.190;2024-02-26T01:38:20;1.95;;;1.02;;
24521;SDS011;12680;57.804;12.190;2024-02-26T01:40:47;2.22;;;1.02;;
24521;SDS011;12680;57.804;12.190;2024-02-26T01:43:14;1.33;;;1.02;;
24521;SDS011;12680;57.804;12.190;2024-02-26T01:45:41;1.80;;;1.20;;
24521;SDS011;12680;57.804;12.190;2024-02-26T01:48:08;1.95;;;1.20;;
24521;SDS011;12680;57.804;12.190;2024-02-26T01:50:37;3.28;;;1.33;;
24521;SDS011;12680;57.804;12.190;2024-02-26T01:53:04;4.93;;;1.10;;
24521;SDS011;12680;57.804;12.190;2024-02-26T01:55:32;2.30;;;1.40;;
24521;SDS011;12680;57.804;12.190;2024-02-26T01:58:00;1.80;;;0.98;;
24521;SDS011;12680;57.804;12.190;2024-02-26T02:00:27;1.20;;;1.10;;
24521;SDS011;12680;57.804;12.190;2024-02-26T02:02:55;1.10;;;1.00;;
24521;SDS011;12680;57.804;12.190;2024-02-26T02:05:22;1.33;;;1.20;;
24521;SDS011;12680;57.804;12.190;2024-02-26T02:07:49;2.75;;;0.98;;
24521;SDS011;12680;57.804;12.190;2024-02-26T02:10:17;1.67;;;1.10;;
24521;SDS011;12680;57.804;12.190;2024-02-26T02:12:49;3.67;;;1.50;;
24521;SDS011;12680;57.804;12.190;2024-02-26T02:15:16;2.53;;;1.42;;
24521;SDS011;12680;57.804;12.190;2024-02-26T02:17:44;2.17;;;1.40;;
24521;SDS011;12680;57.804;12.190;2024-02-26T02:20:17;3.22;;;1.25;;
24521;SDS011;12680;57.804;12.190;2024-02-26T02:22:45;1.40;;;1.20;;
24521;SDS011;12680;57.804;12.190;2024-02-26T02:25:13;1.63;;;1.27;;
24521;SDS011;12680;57.804;12.190;2024-02-26T02:27:40;1.48;;;1.20;;
24521;SDS011;12680;57.804;12.190;2024-02-26T02:30:08;2.10;;;1.48;;
24521;SDS011;12680;57.804;12.190;2024-02-26T02:32:37;2.70;;;1.23;;
24521;SDS011;12680;57.804;12.190;2024-02-26T02:37:35;2.05;;;1.33;;
24521;SDS011;12680;57.804;12.190;2024-02-26T02:40:03;3.30;;;1.25;;
24521;SDS011;12680;57.804;12.190;2024-02-26T02:42:31;2.83;;;1.40;;
24521;SDS011;12680;57.804;12.190;2024-02-26T02:44:58;1.92;;;1.35;;
24521;SDS011;12680;57.804;12.190;2024-02-26T02:47:25;2.33;;;1.67;;
24521;SDS011;12680;57.804;12.190;2024-02-26T02:49:52;2.58;;;1.45;;
24521;SDS011;12680;57.804;12.190;2024-02-26T02:52:19;1.20;;;1.02;;
24521;SDS011;12680;57.804;12.190;2024-02-26T02:54:46;1.90;;;1.15;;
24521;SDS011;12680;57.804;12.190;2024-02-26T02:57:13;1.90;;;1.50;;
24521;SDS011;12680;57.804;12.190;2024-02-26T02:59:40;2.28;;;1.42;;
24521;SDS011;12680;57.804;12.190;2024-02-26T03:02:07;2.13;;;1.60;;
24521;SDS011;12680;57.804;12.190;2024-02-26T03:04:34;2.17;;;1.50;;
24521;SDS011;12680;57.804;12.190;2024-02-26T03:07:01;4.65;;;1.65;;
24521;SDS011;12680;57.804;12.190;2024-02-26T03:09:28;1.63;;;1.35;;
24521;SDS011;12680;57.804;12.190;2024-02-26T03:11:55;2.00;;;1.30;;
24521;SDS011;12680;57.804;12.190;2024-02-26T03:14:23;2.70;;;1.35;;
24521;SDS011;12680;57.804;12.190;2024-02-26T03:16:52;1.83;;;1.30;;
24521;SDS011;12680;57.804;12.190;2024-02-26T03:19:20;2.83;;;1.70;;
24521;SDS011;12680;57.804;12.190;2024-02-26T03:21:48;3.28;;;1.40;;
24521;SDS011;12680;57.804;12.190;2024-02-26T03:24:15;3.70;;;1.63;;
24521;SDS011;12680;57.804;12.190;2024-02-26T03:26:42;1.83;;;1.42;;
24521;SDS011;12680;57.804;12.190;2024-02-26T03:29:09;2.30;;;1.58;;
24521;SDS011;12680;57.804;12.190;2024-02-26T03:31:36;3.22;;;2.20;;
24521;SDS011;12680;57.804;12.190;2024-02-26T03:34:03;3.75;;;1.80;;
24521;SDS011;12680;57.804;12.190;2024-02-26T03:36:30;2.00;;;1.70;;
24521;SDS011;12680;57.804;12.190;2024-02-26T03:38:57;2.53;;;2.00;;
24521;SDS011;12680;57.804;12.190;2024-02-26T03:41:25;2.65;;;1.92;;
24521;SDS011;12680;57.804;12.190;2024-02-26T03:43:52;3.90;;;2.17;;
24521;SDS011;12680;57.804;12.190;2024-02-26T03:46:19;2.75;;;1.70;;
24521;SDS011;12680;57.804;12.190;2024-02-26T03:48:46;2.95;;;1.48;;
24521;SDS011;12680;57.804;12.190;2024-02-26T03:51:14;2.67;;;2.08;;
24521;SDS011;12680;57.804;12.190;2024-02-26T03:53:41;1.80;;;1.50;;
24521;SDS011;12680;57.804;12.190;2024-02-26T03:56:08;2.33;;;1.45;;
24521;SDS011;12680;57.804;12.190;2024-02-26T03:58:37;2.35;;;1.63;;
24521;SDS011;12680;57.804;12.190;2024-02-26T04:01:04;2.08;;;1.73;;
24521;SDS011;12680;57.804;12.190;2024-02-26T04:03:33;4.55;;;1.80;;
24521;SDS011;12680;57.804;12.190;2024-02-26T04:06:01;2.85;;;1.92;;
24521;SDS011;12680;57.804;12.190;2024-02-26T04:08:29;3.67;;;1.80;;
24521;SDS011;12680;57.804;12.190;2024-02-26T04:10:56;1.95;;;1.75;;
24521;SDS011;12680;57.804;12.190;2024-02-26T04:13:23;2.67;;;1.75;;
24521;SDS011;12680;57.804;12.190;2024-02-26T04:15:50;2.83;;;1.52;;
24521;SDS011;12680;57.804;12.190;2024-02-26T04:18:17;1.92;;;1.60;;
24521;SDS011;12680;57.804;12.190;2024-02-26T04:20:44;3.08;;;2.03;;
24521;SDS011;12680;57.804;12.190;2024-02-26T04:23:11;3.60;;;1.98;;
24521;SDS011;12680;57.804;12.190;2024-02-26T04:25:38;2.45;;;2.10;;
24521;SDS011;12680;57.804;12.190;2024-02-26T04:28:05;5.72;;;2.28;;
24521;SDS011;12680;57.804;12.190;2024-02-26T04:30:32;2.22;;;1.92;;
24521;SDS011;12680;57.804;12.190;2024-02-26T04:32:59;3.40;;;2.25;;
24521;SDS011;12680;57.804;12.190;2024-02-26T04:35:26;2.78;;;2.03;;
24521;SDS011;12680;57.804;12.190;2024-02-26T04:37:53;5.63;;;2.05;;
24521;SDS011;12680;57.804;12.190;2024-02-26T04:40:20;2.83;;;2.05;;
24521;SDS011;12680;57.804;12.190;2024-02-26T04:42:47;5.68;;;1.92;;
24521;SDS011;12680;57.804;12.190;2024-02-26T04:45:13;5.93;;;2.42;;
24521;SDS011;12680;57.804;12.190;2024-02-26T04:47:41;3.00;;;1.90;;
24521;SDS011;12680;57.804;12.190;2024-02-26T04:50:08;2.45;;;2.00;;
24521;SDS011;12680;57.804;12.190;2024-02-26T04:52:36;2.50;;;1.80;;
24521;SDS011;12680;57.804;12.190;2024-02-26T04:55:03;2.42;;;1.92;;
24521;SDS011;12680;57.804;12.190;2024-02-26T04:57:30;3.83;;;2.17;;
24521;SDS011;12680;57.804;12.190;2024-02-26T04:59:57;2.85;;;1.98;;
24521;SDS011;12680;57.804;12.190;2024-02-26T05:02:24;2.78;;;1.85;;
24521;SDS011;12680;57.804;12.190;2024-02-26T05:04:50;3.10;;;2.10;;
24521;SDS011;12680;57.804;12.190;2024-02-26T05:07:17;2.13;;;1.67;;
24521;SDS011;12680;57.804;12.190;2024-02-26T05:09:44;3.40;;;2.25;;
24521;SDS011;12680;57.804;12.190;2024-02-26T05:12:12;2.38;;;2.10;;
24521;SDS011;12680;57.804;12.190;2024-02-26T05:14:39;3.03;;;2.10;;
24521;SDS011;12680;57.804;12.190;2024-02-26T05:17:06;4.63;;;2.28;;
24521;SDS011;12680;57.804;12.190;2024-02-26T05:19:33;2.92;;;2.42;;
24521;SDS011;12680;57.804;12.190;2024-02-26T05:22:00;2.95;;;2.50;;
24521;SDS011;12680;57.804;12.190;2024-02-26T05:24:26;3.08;;;2.22;;
24521;SDS011;12680;57.804;12.190;2024-02-26T05:26:54;3.47;;;2.33;;
24521;SDS011;12680;57.804;12.190;2024-02-26T05:29:21;3.38;;;2.50;;
24521;SDS011;12680;57.804;12.190;2024-02-26T05:31:48;3.45;;;2.38;;
24521;SDS011;12680;57.804;12.190;2024-02-26T05:34:15;3.20;;;2.40;;
24521;SDS011;12680;57.804;12.190;2024-02-26T05:36:42;2.92;;;2.10;;
24521;SDS011;12680;57.804;12.190;2024-02-26T05:39:08;2.65;;;2.15;;
24521;SDS011;12680;57.804;12.190;2024-02-26T05:41:43;2.47;;;1.98;;
24521;SDS011;12680;57.804;12.190;2024-02-26T05:44:11;3.10;;;2.30;;
24521;SDS011;12680;57.804;12.190;2024-02-26T05:46:37;2.15;;;1.90;;
24521;SDS011;12680;57.804;12.190;2024-02-26T05:49:04;3.85;;;2.33;;
24521;SDS011;12680;57.804;12.190;2024-02-26T05:51:31;3.13;;;2.20;;
24521;SDS011;12680;57.804;12.190;2024-02-26T05:53:58;2.85;;;2.25;;
24521;SDS011;12680;57.804;12.190;2024-02-26T05:56:25;6.90;;;2.20;;
24521;SDS011;12680;57.804;12.190;2024-02-26T05:58:52;3.15;;;2.38;;
24521;SDS011;12680;57.804;12.190;2024-02-26T06:01:20;3.95;;;2.38;;
24521;SDS011;12680;57.804;12.190;2024-02-26T06:03:47;2.78;;;2.00;;
24521;SDS011;12680;57.804;12.190;2024-02-26T06:06:14;4.38;;;2.25;;
24521;SDS011;12680;57.804;12.190;2024-02-26T06:08:42;3.35;;;1.80;;
24521;SDS011;12680;57.804;12.190;2024-02-26T06:11:09;4.38;;;2.22;;
24521;SDS011;12680;57.804;12.190;2024-02-26T06:13:36;2.40;;;2.08;;
24521;SDS011;12680;57.804;12.190;2024-02-26T06:16:03;2.47;;;2.10;;
24521;SDS011;12680;57.804;12.190;2024-02-26T06:18:30;2.35;;;2.03;;
24521;SDS011;12680;57.804;12.190;2024-02-26T06:20:57;4.88;;;2.03;;
24521;SDS011;12680;57.804;12.190;2024-02-26T06:23:24;4.05;;;2.17;;
24521;SDS011;12680;57.804;12.190;2024-02-26T06:25:52;4.60;;;2.10;;
24521;SDS011;12680;57.804;12.190;2024-02-26T06:28:18;2.40;;;2.17;;
24521;SDS011;12680;57.804;12.190;2024-02-26T06:30:45;3.53;;;2.33;;
24521;SDS011;12680;57.804;12.190;2024-02-26T06:33:12;2.53;;;2.28;;
24521;SDS011;12680;57.804;12.190;2024-02-26T06:35:40;2.30;;;2.05;;
24521;SDS011;12680;57.804;12.190;2024-02-26T06:38:08;3.67;;;2.42;;
24521;SDS011;12680;57.804;12.190;2024-02-26T06:40:35;5.20;;;2.75;;
24521;SDS011;12680;57.804;12.190;2024-02-26T06:43:02;5.15;;;2.60;;
24521;SDS011;12680;57.804;12.190;2024-02-26T06:45:29;3.92;;;2.33;;
24521;SDS011;12680;57.804;12.190;2024-02-26T06:47:56;3.33;;;2.63;;
24521;SDS011;12680;57.804;12.190;2024-02-26T06:50:23;3.00;;;2.50;;
24521;SDS011;12680;57.804;12.190;2024-02-26T06:52:50;3.35;;;2.40;;
24521;SDS011;12680;57.804;12.190;2024-02-26T06:55:16;3.53;;;2.70;;
24521;SDS011;12680;57.804;12.190;2024-02-26T06:57:43;3.40;;;2.53;;
24521;SDS011;12680;57.804;12.190;2024-02-26T07:00:10;3.80;;;2.70;;
24521;SDS011;12680;57.804;12.190;2024-02-26T07:02:41;4.63;;;2.63;;
24521;SDS011;12680;57.804;12.190;2024-02-26T07:05:11;4.30;;;2.38;;
24521;SDS011;12680;57.804;12.190;2024-02-26T07:07:39;4.82;;;2.40;;
24521;SDS011;12680;57.804;12.190;2024-02-26T07:10:06;3.53;;;2.30;;
24521;SDS011;12680;57.804;12.190;2024-02-26T07:12:33;2.78;;;2.03;;
24521;SDS011;12680;57.804;12.190;2024-02-26T07:15:00;5.20;;;2.50;;
24521;SDS011;12680;57.804;12.190;2024-02-26T07:17:28;6.28;;;2.50;;
24521;SDS011;12680;57.804;12.190;2024-02-26T07:19:56;3.30;;;2.30;;
24521;SDS011;12680;57.804;12.190;2024-02-26T07:22:23;4.70;;;2.78;;
24521;SDS011;12680;57.804;12.190;2024-02-26T07:24:50;3.47;;;2.72;;
24521;SDS011;12680;57.804;12.190;2024-02-26T07:27:20;5.13;;;3.38;;
24521;SDS011;12680;57.804;12.190;2024-02-26T07:29:48;3.60;;;3.07;;
24521;SDS011;12680;57.804;12.190;2024-02-26T07:32:14;6.85;;;3.58;;
24521;SDS011;12680;57.804;12.190;2024-02-26T07:34:42;4.13;;;3.00;;
24521;SDS011;12680;57.804;12.190;2024-02-26T07:37:11;7.10;;;3.72;;
24521;SDS011;12680;57.804;12.190;2024-02-26T07:39:38;5.53;;;3.13;;
24521;SDS011;12680;57.804;12.190;2024-02-26T07:42:05;6.13;;;3.92;;
24521;SDS011;12680;57.804;12.190;2024-02-26T07:44:33;4.82;;;3.90;;
24521;SDS011;12680;57.804;12.190;2024-02-26T07:47:00;6.55;;;3.47;;
24521;SDS011;12680;57.804;12.190;2024-02-26T07:49:27;5.30;;;3.90;;
24521;SDS011;12680;57.804;12.190;2024-02-26T07:51:54;5.97;;;3.67;;
24521;SDS011;12680;57.804;12.190;2024-02-26T07:54:21;5.80;;;3.30;;
24521;SDS011;12680;57.804;12.190;2024-02-26T07:56:48;6.15;;;3.25;;
24521;SDS011;12680;57.804;12.190;2024-02-26T07:59:14;7.47;;;3.83;;
24521;SDS011;12680;57.804;12.190;2024-02-26T08:01:41;6.22;;;3.70;;
24521;SDS011;12680;57.804;12.190;2024-02-26T08:04:11;5.38;;;3.85;;
24521;SDS011;12680;57.804;12.190;2024-02-26T08:06:38;6.20;;;4.05;;
24521;SDS011;12680;57.804;12.190;2024-02-26T08:09:05;4.15;;;3.25;;
24521;SDS011;12680;57.804;12.190;2024-02-26T08:11:33;6.07;;;4.05;;
24521;SDS011;12680;57.804;12.190;2024-02-26T08:14:00;5.40;;;3.13;;
24521;SDS011;12680;57.804;12.190;2024-02-26T08:16:27;4.85;;;3.40;;
24521;SDS011;12680;57.804;12.190;2024-02-26T08:18:54;4.68;;;3.45;;
24521;SDS011;12680;57.804;12.190;2024-02-26T08:21:21;5.50;;;3.58;;
24521;SDS011;12680;57.804;12.190;2024-02-26T08:23:48;7.20;;;3.40;;
24521;SDS011;12680;57.804;12.190;2024-02-26T08:26:15;6.85;;;3.70;;
24521;SDS011;12680;57.804;12.190;2024-02-26T08:28:42;5.00;;;3.60;;
24521;SDS011;12680;57.804;12.190;2024-02-26T08:31:08;4.32;;;3.30;;
24521;SDS011;12680;57.804;12.190;2024-02-26T08:33:36;6.90;;;3.70;;
24521;SDS011;12680;57.804;12.190;2024-02-26T08:36:04;6.20;;;3.33;;
24521;SDS011;12680;57.804;12.190;2024-02-26T08:38:34;4.60;;;3.42;;
24521;SDS011;12680;57.804;12.190;2024-02-26T08:41:02;3.80;;;2.72;;
24521;SDS011;12680;57.804;12.190;2024-02-26T08:43:29;4.95;;;3.65;;
24521;SDS011;12680;57.804;12.190;2024-02-26T08:45:56;4.55;;;3.25;;
24521;SDS011;12680;57.804;12.190;2024-02-26T08:48:23;6.07;;;3.70;;
24521;SDS011;12680;57.804;12.190;2024-02-26T08:50:50;6.93;;;3.13;;
24521;SDS011;12680;57.804;12.190;2024-02-26T08:53:17;5.57;;;3.38;;
24521;SDS011;12680;57.804;12.190;2024-02-26T08:55:56;5.47;;;3.50;;
24521;SDS011;12680;57.804;12.190;2024-02-26T08:58:23;5.57;;;3.25;;
24521;SDS011;12680;57.804;12.190;2024-02-26T09:00:50;4.63;;;3.38;;
24521;SDS011;12680;57.804;12.190;2024-02-26T09:03:17;3.55;;;3.17;;
24521;SDS011;12680;57.804;12.190;2024-02-26T09:05:44;5.15;;;3.25;;
24521;SDS011;12680;57.804;12.190;2024-02-26T09:08:11;5.70;;;3.60;;
24521;SDS011;12680;57.804;12.190;2024-02-26T09:10:38;5.15;;;2.95;;
24521;SDS011;12680;57.804;12.190;2024-02-26T09:13:05;4.25;;;2.75;;
24521;SDS011;12680;57.804;12.190;2024-02-26T09:15:32;4.20;;;2.40;;
24521;SDS011;12680;57.804;12.190;2024-02-26T09:17:59;4.20;;;2.22;;
24521;SDS011;12680;57.804;12.190;2024-02-26T09:20:26;4.15;;;2.63;;
24521;SDS011;12680;57.804;12.190;2024-02-26T09:22:53;5.57;;;2.88;;
24521;SDS011;12680;57.804;12.190;2024-02-26T09:25:20;3.38;;;2.70;;
24521;SDS011;12680;57.804;12.190;2024-02-26T09:27:47;3.92;;;2.25;;
24521;SDS011;12680;57.804;12.190;2024-02-26T09:30:14;3.50;;;2.58;;
24521;SDS011;12680;57.804;12.190;2024-02-26T09:32:41;2.85;;;2.20;;
24521;SDS011;12680;57.804;12.190;2024-02-26T09:35:12;2.88;;;2.40;;
24521;SDS011;12680;57.804;12.190;2024-02-26T09:37:39;3.83;;;2.50;;
24521;SDS011;12680;57.804;12.190;2024-02-26T09:40:06;3.35;;;2.40;;
24521;SDS011;12680;57.804;12.190;2024-02-26T09:42:33;5.10;;;2.50;;
24521;SDS011;12680;57.804;12.190;2024-02-26T09:45:01;3.95;;;2.92;;
24521;SDS011;12680;57.804;12.190;2024-02-26T09:47:34;3.47;;;2.47;;
24521;SDS011;12680;57.804;12.190;2024-02-26T09:50:05;3.78;;;2.75;;
24521;SDS011;12680;57.804;12.190;2024-02-26T09:52:35;6.43;;;3.10;;
24521;SDS011;12680;57.804;12.190;2024-02-26T09:55:04;2.78;;;2.45;;
24521;SDS011;12680;57.804;12.190;2024-02-26T09:57:31;2.97;;;2.35;;
24521;SDS011;12680;57.804;12.190;2024-02-26T09:59:59;3.75;;;2.30;;
24521;SDS011;12680;57.804;12.190;2024-02-26T10:02:30;3.20;;;2.25;;
24521;SDS011;12680;57.804;12.190;2024-02-26T10:04:57;2.70;;;2.10;;
24521;SDS011;12680;57.804;12.190;2024-02-26T10:07:31;3.33;;;2.53;;
24521;SDS011;12680;57.804;12.190;2024-02-26T10:09:58;3.38;;;2.40;;
24521;SDS011;12680;57.804;12.190;2024-02-26T10:12:25;3.08;;;2.25;;
24521;SDS011;12680;57.804;12.190;2024-02-26T10:14:54;3.17;;;2.30;;
24521;SDS011;12680;57.804;12.190;2024-02-26T10:17:20;3.17;;;2.45;;
24521;SDS011;12680;57.804;12.190;2024-02-26T10:19:48;3.90;;;2.42;;
24521;SDS011;12680;57.804;12.190;2024-02-26T10:22:18;4.78;;;2.60;;
24521;SDS011;12680;57.804;12.190;2024-02-26T10:24:46;3.08;;;2.40;;
24521;SDS011;12680;57.804;12.190;2024-02-26T10:27:13;3.25;;;2.15;;
24521;SDS011;12680;57.804;12.190;2024-02-26T10:29:41;2.50;;;2.00;;
24521;SDS011;12680;57.804;12.190;2024-02-26T10:32:09;4.40;;;2.25;;
24521;SDS011;12680;57.804;12.190;2024-02-26T10:34:37;3.47;;;2.50;;
24521;SDS011;12680;57.804;12.190;2024-02-26T10:37:07;3.58;;;2.40;;
24521;SDS011;12680;57.804;12.190;2024-02-26T10:39:36;3.58;;;2.10;;
24521;SDS011;12680;57.804;12.190;2024-02-26T10:42:04;3.58;;;2.28;;
24521;SDS011;12680;57.804;12.190;2024-02-26T10:44:36;4.50;;;2.50;;
24521;SDS011;12680;57.804;12.190;2024-02-26T10:47:03;2.88;;;2.55;;
24521;SDS011;12680;57.804;12.190;2024-02-26T10:49:30;2.40;;;2.20;;
24521;SDS011;12680;57.804;12.190;2024-02-26T10:51:57;2.92;;;2.22;;
24521;SDS011;12680;57.804;12.190;2024-02-26T10:54:25;3.58;;;2.65;;
24521;SDS011;12680;57.804;12.190;2024-02-26T10:56:55;3.42;;;2.55;;
24521;SDS011;12680;57.804;12.190;2024-02-26T10:59:24;3.20;;;2.53;;
24521;SDS011;12680;57.804;12.190;2024-02-26T11:01:51;3.50;;;2.88;;
24521;SDS011;12680;57.804;12.190;2024-02-26T11:04:18;4.00;;;2.70;;
24521;SDS011;12680;57.804;12.190;2024-02-26T11:06:48;5.55;;;2.97;;
24521;SDS011;12680;57.804;12.190;2024-02-26T11:09:17;7.15;;;3.90;;
24521;SDS011;12680;57.804;12.190;2024-02-26T11:11:46;5.32;;;3.22;;
24521;SDS011;12680;57.804;12.190;2024-02-26T11:14:14;5.60;;;3.78;;
24521;SDS011;12680;57.804;12.190;2024-02-26T11:16:42;4.90;;;2.95;;
24521;SDS011;12680;57.804;12.190;2024-02-26T11:19:10;4.97;;;2.92;;
24521;SDS011;12680;57.804;12.190;2024-02-26T11:21:40;3.78;;;3.10;;
24521;SDS011;12680;57.804;12.190;2024-02-26T11:24:12;4.15;;;3.28;;
24521;SDS011;12680;57.804;12.190;2024-02-26T11:26:59;4.38;;;2.97;;
24521;SDS011;12680;57.804;12.190;2024-02-26T11:29:49;3.95;;;3.17;;
24521;SDS011;12680;57.804;12.190;2024-02-26T11:32:18;4.75;;;3.50;;
24521;SDS011;12680;57.804;12.190;2024-02-26T11:34:45;6.22;;;3.40;;
24521;SDS011;12680;57.804;12.190;2024-02-26T11:37:13;5.32;;;2.53;;
24521;SDS011;12680;57.804;12.190;2024-02-26T11:39:41;5.20;;;3.00;;
24521;SDS011;12680;57.804;12.190;2024-02-26T11:42:08;3.85;;;3.05;;
24521;SDS011;12680;57.804;12.190;2024-02-26T11:44:35;7.07;;;3.33;;
24521;SDS011;12680;57.804;12.190;2024-02-26T11:47:12;4.95;;;3.38;;
24521;SDS011;12680;57.804;12.190;2024-02-26T11:49:40;3.92;;;3.47;;
24521;SDS011;12680;57.804;12.190;2024-02-26T11:52:07;3.75;;;2.88;;
24521;SDS011;12680;57.804;12.190;2024-02-26T11:57:27;5.32;;;3.38;;
24521;SDS011;12680;57.804;12.190;2024-02-26T12:00:03;5.25;;;3.75;;
24521;SDS011;12680;57.804;12.190;2024-02-26T12:02:47;6.82;;;4.00;;
24521;SDS011;12680;57.804;12.190;2024-02-26T12:05:25;6.50;;;4.13;;
24521;SDS011;12680;57.804;12.190;2024-02-26T12:08:04;6.28;;;4.40;;
24521;SDS011;12680;57.804;12.190;2024-02-26T12:10:35;6.05;;;4.35;;
24521;SDS011;12680;57.804;12.190;2024-02-26T12:13:06;6.88;;;4.28;;
24521;SDS011;12680;57.804;12.190;2024-02-26T12:15:38;7.00;;;4.80;;
24521;SDS011;12680;57.804;12.190;2024-02-26T12:18:06;9.07;;;5.50;;
24521;SDS011;12680;57.804;12.190;2024-02-26T12:20:34;7.13;;;5.18;;
24521;SDS011;12680;57.804;12.190;2024-02-26T12:23:01;7.78;;;4.53;;
24521;SDS011;12680;57.804;12.190;2024-02-26T12:25:30;6.90;;;5.22;;
24521;SDS011;12680;57.804;12.190;2024-02-26T12:27:59;8.38;;;5.30;;
24521;SDS011;12680;57.804;12.190;2024-02-26T12:30:26;6.30;;;4.97;;
24521;SDS011;12680;57.804;12.190;2024-02-26T12:32:56;7.68;;;4.88;;
24521;SDS011;12680;57.804;12.190;2024-02-26T12:35:24;7.05;;;4.97;;
24521;SDS011;12680;57.804;12.190;2024-02-26T12:37:51;9.23;;;5.00;;
24521;SDS011;12680;57.804;12.190;2024-02-26T12:40:20;6.18;;;4.63;;
24521;SDS011;12680;57.804;12.190;2024-02-26T12:42:47;6.20;;;4.45;;
24521;SDS011;12680;57.804;12.190;2024-02-26T12:45:14;9.43;;;5.57;;
24521;SDS011;12680;57.804;12.190;2024-02-26T12:47:43;7.10;;;4.97;;
24521;SDS011;12680;57.804;12.190;2024-02-26T12:50:15;8.25;;;5.53;;
24521;SDS011;12680;57.804;12.190;2024-02-26T12:52:43;7.70;;;5.25;;
24521;SDS011;12680;57.804;12.190;2024-02-26T12:55:12;7.38;;;5.88;;
24521;SDS011;12680;57.804;12.190;2024-02-26T12:57:41;8.95;;;5.63;;
24521;SDS011;12680;57.804;12.190;2024-02-26T13:00:12;7.05;;;4.82;;
24521;SDS011;12680;57.804;12.190;2024-02-26T13:02:42;8.40;;;5.63;;
24521;SDS011;12680;57.804;12.190;2024-02-26T13:05:11;9.60;;;4.97;;
24521;SDS011;12680;57.804;12.190;2024-02-26T13:07:43;7.82;;;5.05;;
24521;SDS011;12680;57.804;12.190;2024-02-26T13:12:44;9.05;;;5.00;;
24521;SDS011;12680;57.804;12.190;2024-02-26T13:15:16;7.55;;;4.78;;
24521;SDS011;12680;57.804;12.190;2024-02-26T13:17:45;5.72;;;4.43;;
24521;SDS011;12680;57.804;12.190;2024-02-26T13:20:13;7.22;;;5.10;;
24521;SDS011;12680;57.804;12.190;2024-02-26T13:22:51;7.07;;;4.50;;
24521;SDS011;12680;57.804;12.190;2024-02-26T13:25:25;7.43;;;4.90;;
24521;SDS011;12680;57.804;12.190;2024-02-26T13:27:52;6.68;;;5.03;;
24521;SDS011;12680;57.804;12.190;2024-02-26T13:30:19;7.15;;;4.88;;
24521;SDS011;12680;57.804;12.190;2024-02-26T13:32:46;6.80;;;4.75;;
24521;SDS011;12680;57.804;12.190;2024-02-26T13:35:13;8.27;;;5.70;;
24521;SDS011;12680;57.804;12.190;2024-02-26T13:37:40;9.85;;;6.57;;
24521;SDS011;12680;57.804;12.190;2024-02-26T13:40:08;7.75;;;5.55;;
24521;SDS011;12680;57.804;12.190;2024-02-26T13:42:36;8.25;;;5.60;;
24521;SDS011;12680;57.804;12.190;2024-02-26T13:45:04;7.28;;;5.35;;
24521;SDS011;12680;57.804;12.190;2024-02-26T13:47:35;7.10;;;4.90;;
24521;SDS011;12680;57.804;12.190;2024-02-26T13:50:02;7.45;;;5.20;;
24521;SDS011;12680;57.804;12.190;2024-02-26T13:52:30;8.02;;;5.20;;
24521;SDS011;12680;57.804;12.190;2024-02-26T13:54:59;9.55;;;5.72;;
24521;SDS011;12680;57.804;12.190;2024-02-26T13:57:26;10.00;;;5.22;;
24521;SDS011;12680;57.804;12.190;2024-02-26T13:59:53;8.73;;;5.55;;
24521;SDS011;12680;57.804;12.190;2024-02-26T14:02:20;9.70;;;5.97;;
24521;SDS011;12680;57.804;12.190;2024-02-26T14:04:47;8.43;;;4.63;;
24521;SDS011;12680;57.804;12.190;2024-02-26T14:07:15;8.38;;;5.50;;
24521;SDS011;12680;57.804;12.190;2024-02-26T14:09:43;6.65;;;4.90;;
24521;SDS011;12680;57.804;12.190;2024-02-26T14:12:15;10.00;;;5.68;;
24521;SDS011;12680;57.804;12.190;2024-02-26T14:14:47;7.78;;;5.38;;
24521;SDS011;12680;57.804;12.190;2024-02-26T14:17:15;10.15;;;5.53;;
24521;SDS011;12680;57.804;12.190;2024-02-26T14:19:42;9.20;;;5.32;;
24521;SDS011;12680;57.804;12.190;2024-02-26T14:22:14;8.10;;;5.13;;
24521;SDS011;12680;57.804;12.190;2024-02-26T14:24:44;8.77;;;5.15;;
24521;SDS011;12680;57.804;12.190;2024-02-26T14:27:12;7.50;;;5.05;;
24521;SDS011;12680;57.804;12.190;2024-02-26T14:29:42;7.82;;;4.88;;
24521;SDS011;12680;57.804;12.190;2024-02-26T14:32:10;8.00;;;5.55;;
24521;SDS011;12680;57.804;12.190;2024-02-26T14:34:36;8.70;;;5.03;;
24521;SDS011;12680;57.804;12.190;2024-02-26T14:37:03;8.13;;;5.22;;
24521;SDS011;12680;57.804;12.190;2024-02-26T14:39:31;7.18;;;4.75;;
24521;SDS011;12680;57.804;12.190;2024-02-26T14:41:59;8.80;;;4.88;;
24521;SDS011;12680;57.804;12.190;2024-02-26T14:44:26;7.25;;;5.20;;